createdAt,value
2022-11-07T00:01:55.207Z,69.10
2022-11-07T00:04:22.654Z,69.15
2022-11-07T00:06:50.178Z,68.79
2022-11-07T00:09:17.602Z,69.06
2022-11-07T00:11:45.047Z,68.92
2022-11-07T00:14:17.037Z,68.88
2022-11-07T00:16:46.207Z,68.91
2022-11-07T00:19:16.701Z,68.82
2022-11-07T00:21:44.478Z,68.57
2022-11-07T00:24:13.709Z,68.90
2022-11-07T00:26:41.035Z,68.83
2022-11-07T00:29:13.494Z,69.15
2022-11-07T00:31:40.888Z,69.19
2022-11-07T00:34:08.435Z,69.65
2022-11-07T00:36:35.993Z,69.94
2022-11-07T00:39:04.256Z,69.73
2022-11-07T00:41:32.143Z,69.11
2022-11-07T00:43:59.622Z,69.34
2022-11-07T00:46:26.955Z,69.83
2022-11-07T00:48:54.491Z,69.27
2022-11-07T00:51:24.281Z,68.93
2022-11-07T00:53:52.519Z,69.12
2022-11-07T00:56:24.745Z,69.50
2022-11-07T00:58:55.079Z,69.10
2022-11-07T01:01:25.537Z,69.48
2022-11-07T01:04:12.218Z,69.01
2022-11-07T01:06:41.878Z,68.85
2022-11-07T01:09:15.993Z,68.56
2022-11-07T01:11:44.760Z,68.67
2022-11-07T01:14:13.211Z,68.80
2022-11-07T01:16:42.051Z,68.58
2022-11-07T01:19:10.247Z,69.52
2022-11-07T01:21:40.487Z,69.94
2022-11-07T01:24:10.476Z,71.42
2022-11-07T01:26:39.468Z,70.48
2022-11-07T01:29:07.836Z,70.77
2022-11-07T01:31:35.347Z,70.56
2022-11-07T01:34:02.874Z,70.41
2022-11-07T01:36:30.760Z,69.93
2022-11-07T01:38:58.544Z,69.97
2022-11-07T01:41:31.572Z,69.90
2022-11-07T01:44:00.712Z,70.26
2022-11-07T01:46:42.598Z,70.06
2022-11-07T01:49:28.327Z,70.35
2022-11-07T01:52:16.132Z,69.71
2022-11-07T01:54:59.906Z,69.72
2022-11-07T01:57:54.091Z,70.49
2022-11-07T02:00:23.220Z,71.00
2022-11-07T02:03:06.514Z,71.16
2022-11-07T02:05:43.827Z,71.37
2022-11-07T02:08:12.504Z,70.94
2022-11-07T02:10:40.975Z,71.22
2022-11-07T02:13:08.979Z,71.93
2022-11-07T02:15:37.031Z,72.59
2022-11-07T02:18:04.691Z,72.60
2022-11-07T02:20:32.222Z,74.11
2022-11-07T02:23:20.528Z,74.49
2022-11-07T02:25:48.110Z,74.72
2022-11-07T02:28:16.807Z,74.80
2022-11-07T02:30:44.164Z,74.85
2022-11-07T02:33:20.299Z,74.51
2022-11-07T02:35:50.839Z,74.42
2022-11-07T02:38:21.021Z,74.65
2022-11-07T02:40:52.696Z,74.21
2022-11-07T02:43:21.779Z,74.71
2022-11-07T02:45:50.713Z,74.94
2022-11-07T02:48:18.309Z,75.01
2022-11-07T02:50:46.291Z,74.85
2022-11-07T02:53:14.039Z,75.06
2022-11-07T02:55:41.580Z,75.53
2022-11-07T02:58:09.024Z,75.71
2022-11-07T03:00:36.469Z,74.85
2022-11-07T03:03:03.980Z,74.84
2022-11-07T03:05:31.428Z,76.14
2022-11-07T03:07:58.851Z,76.13
2022-11-07T03:10:26.337Z,75.90
2022-11-07T03:12:53.736Z,76.24
2022-11-07T03:15:21.260Z,75.79
2022-11-07T03:17:50.408Z,76.01
2022-11-07T03:20:17.804Z,76.23
2022-11-07T03:22:47.336Z,76.66
2022-11-07T03:25:15.070Z,76.54
2022-11-07T03:27:49.392Z,76.75
2022-11-07T03:30:17.690Z,77.51
2022-11-07T03:32:45.063Z,77.93
2022-11-07T03:35:12.884Z,78.56
2022-11-07T03:37:40.243Z,78.57
2022-11-07T03:40:08.271Z,78.40
2022-11-07T03:42:43.242Z,79.16
2022-11-07T03:45:12.539Z,78.97
2022-11-07T03:47:41.423Z,80.19
2022-11-07T03:50:11.032Z,80.54
2022-11-07T03:52:38.485Z,81.64
2022-11-07T03:55:06.545Z,81.07
2022-11-07T03:57:34.123Z,80.85
2022-11-07T04:00:01.775Z,81.46
2022-11-07T04:02:39.518Z,80.94
2022-11-07T04:05:07.811Z,81.10
2022-11-07T04:07:35.350Z,80.80
2022-11-07T04:10:02.811Z,80.75
2022-11-07T04:12:48.709Z,80.87
2022-11-07T04:15:34.664Z,80.44
2022-11-07T04:18:02.255Z,80.85
2022-11-07T04:20:29.697Z,80.88
2022-11-07T04:22:57.116Z,80.79
2022-11-07T04:25:44.568Z,80.27
2022-11-07T04:28:12.037Z,80.17
2022-11-07T04:30:39.361Z,80.47
2022-11-07T04:33:06.746Z,80.79
2022-11-07T04:35:34.129Z,80.99
2022-11-07T04:38:01.791Z,81.92
2022-11-07T04:40:29.818Z,82.02
2022-11-07T04:42:57.618Z,81.87
2022-11-07T04:45:25.024Z,80.91
2022-11-07T04:47:52.591Z,81.17
2022-11-07T04:50:20.299Z,81.45
2022-11-07T04:52:48.048Z,81.21
2022-11-07T04:55:27.442Z,82.07
2022-11-07T04:57:54.898Z,81.53
2022-11-07T05:00:22.347Z,81.66
2022-11-07T05:02:50.699Z,81.81
2022-11-07T05:05:18.899Z,82.36
2022-11-07T05:07:46.734Z,82.84
2022-11-07T05:10:26.134Z,83.47
2022-11-07T05:12:54.151Z,83.73
2022-11-07T05:15:21.600Z,83.12
2022-11-07T05:17:49.092Z,83.37
2022-11-07T05:20:32.149Z,83.51
2022-11-07T05:23:15.905Z,83.89
2022-11-07T05:25:53.275Z,83.99
2022-11-07T05:28:31.206Z,83.77
2022-11-07T05:31:04.936Z,83.95
2022-11-07T05:33:32.759Z,84.90
2022-11-07T05:36:13.064Z,84.88
2022-11-07T05:38:45.876Z,84.85
2022-11-07T05:41:15.450Z,84.69
2022-11-07T05:43:43.361Z,84.09
2022-11-07T05:46:11.387Z,83.73
2022-11-07T05:48:39.308Z,84.14
2022-11-07T05:51:07.739Z,84.59
2022-11-07T05:53:35.415Z,83.78
2022-11-07T05:56:02.858Z,84.26
2022-11-07T05:58:30.517Z,83.26
2022-11-07T06:01:03.140Z,83.46
2022-11-07T06:03:31.419Z,83.09
2022-11-07T06:06:06.517Z,82.97
2022-11-07T06:08:34.012Z,83.06
2022-11-07T06:11:04.945Z,82.88
2022-11-07T06:13:35.661Z,82.97
2022-11-07T06:16:03.739Z,82.40
2022-11-07T06:18:31.403Z,81.74
2022-11-07T06:21:01.526Z,82.76
2022-11-07T06:23:29.104Z,82.01
2022-11-07T06:25:56.579Z,82.38
2022-11-07T06:28:24.017Z,81.66
2022-11-07T06:30:51.883Z,81.10
2022-11-07T06:33:19.829Z,81.88
2022-11-07T06:35:47.622Z,82.14
2022-11-07T06:38:15.627Z,81.59
2022-11-07T06:40:43.700Z,81.65
2022-11-07T06:43:11.350Z,80.55
2022-11-07T06:45:38.963Z,79.59
2022-11-07T06:48:07.037Z,79.75
2022-11-07T06:50:35.710Z,79.29
2022-11-07T06:53:08.713Z,79.32
2022-11-07T06:55:37.078Z,79.24
2022-11-07T06:58:08.448Z,79.27
2022-11-07T07:00:37.418Z,79.02
2022-11-07T07:03:05.629Z,78.80
2022-11-07T07:05:34.692Z,79.16
2022-11-07T07:08:03.140Z,78.81
2022-11-07T07:10:41.872Z,78.42
2022-11-07T07:13:14.351Z,78.39
2022-11-07T07:15:50.795Z,78.09
2022-11-07T07:18:19.826Z,77.03
2022-11-07T07:20:48.755Z,76.95
2022-11-07T07:23:20.841Z,76.38
2022-11-07T07:25:49.355Z,76.69
2022-11-07T07:28:17.531Z,76.67
2022-11-07T07:30:50.522Z,76.22
2022-11-07T07:33:20.113Z,76.43
2022-11-07T07:35:47.728Z,77.12
2022-11-07T07:38:15.211Z,77.77
2022-11-07T07:40:42.574Z,78.29
2022-11-07T07:43:10.471Z,79.01
2022-11-07T07:45:37.952Z,78.80
2022-11-07T07:48:05.816Z,78.99
2022-11-07T07:50:33.756Z,77.58
2022-11-07T07:53:06.230Z,76.80
2022-11-07T07:55:36.432Z,75.21
2022-11-07T07:58:03.865Z,74.01
2022-11-07T08:00:31.307Z,73.72
2022-11-07T08:03:11.053Z,73.34
2022-11-07T08:05:57.046Z,73.29
2022-11-07T08:08:25.920Z,72.95
2022-11-07T08:10:56.649Z,72.18
2022-11-07T08:13:25.616Z,69.73
2022-11-07T08:15:53.767Z,65.91
2022-11-07T08:18:22.428Z,58.97
2022-11-07T08:20:51.520Z,53.81
2022-11-07T08:23:19.538Z,52.24
2022-11-07T08:25:54.604Z,51.66
2022-11-07T08:28:24.256Z,50.68
2022-11-07T08:31:05.710Z,48.66
2022-11-07T08:33:33.355Z,47.81
2022-11-07T08:36:02.939Z,48.81
2022-11-07T08:38:32.113Z,50.33
2022-11-07T08:40:59.838Z,52.81
2022-11-07T08:43:27.309Z,55.06
2022-11-07T08:45:55.843Z,56.09
2022-11-07T08:48:23.906Z,56.12
2022-11-07T08:50:56.523Z,58.48
2022-11-07T08:53:25.790Z,59.12
2022-11-07T08:56:00.023Z,59.21
2022-11-07T08:58:30.191Z,58.87
2022-11-07T09:00:58.711Z,58.28
2022-11-07T09:03:46.574Z,56.72
2022-11-07T09:06:15.485Z,56.33
2022-11-07T09:08:42.897Z,56.00
2022-11-07T09:11:10.381Z,56.32
2022-11-07T09:13:37.963Z,57.09
2022-11-07T09:16:05.897Z,57.43
2022-11-07T09:18:34.101Z,58.09
2022-11-07T09:21:01.604Z,55.73
2022-11-07T09:23:29.040Z,56.95
2022-11-07T09:26:00.434Z,57.52
2022-11-07T09:28:28.677Z,57.32
2022-11-07T09:30:57.736Z,57.82
2022-11-07T09:33:25.987Z,56.20
2022-11-07T09:35:53.576Z,56.18
2022-11-07T09:38:20.992Z,55.84
2022-11-07T09:40:54.672Z,55.52
2022-11-07T09:44:06.624Z,55.90
2022-11-07T09:47:07.823Z,56.94
2022-11-07T09:49:42.926Z,56.49
2022-11-07T09:52:36.708Z,55.36
2022-11-07T09:55:26.870Z,55.66
2022-11-07T09:57:58.743Z,56.03
2022-11-07T10:00:30.181Z,54.25
2022-11-07T10:03:01.891Z,54.49
2022-11-07T10:05:38.188Z,54.87
2022-11-07T10:08:28.167Z,55.37
2022-11-07T10:11:01.079Z,55.94
2022-11-07T10:13:56.349Z,55.03
2022-11-07T10:16:29.796Z,56.15
2022-11-07T10:19:36.076Z,56.27
2022-11-07T10:22:25.459Z,56.59
2022-11-07T10:25:05.759Z,57.25
2022-11-07T10:27:34.584Z,57.24
2022-11-07T10:30:02.182Z,55.64
2022-11-07T10:32:41.553Z,55.13
2022-11-07T10:35:30.143Z,54.61
2022-11-07T10:38:04.755Z,55.40
2022-11-07T10:40:38.577Z,56.20
2022-11-07T10:43:14.757Z,56.02
2022-11-07T10:45:42.771Z,56.23
2022-11-07T10:50:58.461Z,56.00
2022-11-07T10:53:26.931Z,55.66
2022-11-07T10:56:44.458Z,55.90
2022-11-07T10:59:24.686Z,56.40
2022-11-07T11:01:54.257Z,57.26
2022-11-07T11:04:30.228Z,56.62
2022-11-07T11:07:13.479Z,55.81
2022-11-07T11:09:53.321Z,55.29
2022-11-07T11:12:26.309Z,55.61
2022-11-07T11:15:11.584Z,54.02
2022-11-07T11:17:39.571Z,54.67
2022-11-07T11:20:26.793Z,55.49
2022-11-07T11:22:54.648Z,54.50
2022-11-07T11:25:23.899Z,53.88
2022-11-07T11:27:57.107Z,53.59
2022-11-07T11:30:25.473Z,52.96
2022-11-07T11:33:12.962Z,53.62
2022-11-07T11:36:02.564Z,53.86
2022-11-07T11:38:39.895Z,53.18
2022-11-07T11:41:50.215Z,53.21
2022-11-07T11:44:26.404Z,54.03
2022-11-07T11:46:59.991Z,54.55
2022-11-07T11:49:37.940Z,53.71
2022-11-07T11:52:20.743Z,53.76
2022-11-07T11:54:51.024Z,54.56
2022-11-07T11:57:39.870Z,54.41
2022-11-07T12:00:14.403Z,54.05
2022-11-07T12:02:51.178Z,54.03
2022-11-07T12:05:29.475Z,53.59
2022-11-07T12:08:14.923Z,52.21
2022-11-07T12:10:52.646Z,53.07
2022-11-07T12:13:39.024Z,53.61
2022-11-07T12:16:06.412Z,53.99
2022-11-07T12:18:59.091Z,54.04
2022-11-07T12:21:33.952Z,53.55
2022-11-07T12:24:49.183Z,53.81
2022-11-07T12:27:37.692Z,53.00
2022-11-07T12:30:11.113Z,53.74
2022-11-07T12:33:12.513Z,53.37
2022-11-07T12:36:06.320Z,53.32
2022-11-07T12:38:33.870Z,53.45
2022-11-07T12:41:23.992Z,53.82
2022-11-07T12:44:10.146Z,54.27
2022-11-07T12:46:51.391Z,53.74
2022-11-07T12:49:47.667Z,53.58
2022-11-07T12:52:29.245Z,53.73
2022-11-07T12:55:04.747Z,53.85
2022-11-07T12:57:34.308Z,53.82
2022-11-07T13:00:07.143Z,53.63
2022-11-07T13:02:51.184Z,53.61
2022-11-07T13:05:29.343Z,53.30
2022-11-07T13:08:00.904Z,53.28
2022-11-07T13:10:47.520Z,52.37
2022-11-07T13:13:25.800Z,51.42
2022-11-07T13:16:14.548Z,51.77
2022-11-07T13:21:09.471Z,51.57
2022-11-07T13:23:36.991Z,53.04
2022-11-07T13:26:26.244Z,51.94
2022-11-07T13:29:02.455Z,51.51
2022-11-07T13:31:38.537Z,51.81
2022-11-07T13:34:18.566Z,52.29
2022-11-07T13:36:49.336Z,52.14
2022-11-07T13:39:18.370Z,52.36
2022-11-07T13:41:46.267Z,52.33
2022-11-07T13:44:28.028Z,52.01
2022-11-07T13:47:01.922Z,50.16
2022-11-07T13:49:44.969Z,51.03
2022-11-07T13:52:40.530Z,51.36
2022-11-07T13:55:29.231Z,50.76
2022-11-07T13:58:03.886Z,50.17
2022-11-07T14:00:33.683Z,50.52
2022-11-07T14:03:35.529Z,49.76
2022-11-07T14:06:03.543Z,49.64
2022-11-07T14:08:40.893Z,50.03
2022-11-07T14:11:17.760Z,49.87
2022-11-07T14:13:48.863Z,50.08
2022-11-07T14:16:27.962Z,50.54
2022-11-07T14:19:02.185Z,51.07
2022-11-07T14:21:32.689Z,51.17
2022-11-07T14:24:00.348Z,51.36
2022-11-07T14:26:33.621Z,51.37
2022-11-07T14:29:02.326Z,51.58
2022-11-07T14:31:35.681Z,51.76
2022-11-07T14:34:17.535Z,52.09
2022-11-07T14:36:51.862Z,52.55
2022-11-07T14:39:21.386Z,52.15
2022-11-07T14:41:49.923Z,52.69
2022-11-07T14:44:53.284Z,52.67
2022-11-07T14:47:24.812Z,52.55
2022-11-07T14:49:56.477Z,52.35
2022-11-07T14:52:36.320Z,52.14
2022-11-07T14:55:11.458Z,52.64
2022-11-07T14:57:40.364Z,53.25
2022-11-07T15:00:13.361Z,53.83
2022-11-07T15:02:42.015Z,52.89
2022-11-07T15:05:38.248Z,53.97
2022-11-07T15:08:05.820Z,52.97
2022-11-07T15:10:38.934Z,52.52
2022-11-07T15:13:24.432Z,53.17
2022-11-07T15:16:14.902Z,53.33
2022-11-07T15:18:45.276Z,53.47
2022-11-07T15:21:45.517Z,53.31
2022-11-07T15:24:34.327Z,53.78
2022-11-07T15:27:03.170Z,54.22
2022-11-07T15:29:33.662Z,53.87
2022-11-07T15:32:14.287Z,53.64
2022-11-07T15:35:03.754Z,53.69
2022-11-07T15:37:30.358Z,53.91
2022-11-07T15:39:57.798Z,54.20
2022-11-07T15:42:25.223Z,54.78
2022-11-07T15:44:52.735Z,55.38
2022-11-07T15:47:22.126Z,55.74
2022-11-07T15:49:49.874Z,56.86
2022-11-07T15:52:17.290Z,57.18
2022-11-07T15:54:44.842Z,57.71
2022-11-07T15:57:12.945Z,58.52
2022-11-07T15:59:40.514Z,58.58
2022-11-07T16:02:15.460Z,59.33
2022-11-07T16:04:43.896Z,59.43
2022-11-07T16:07:17.479Z,59.65
2022-11-07T16:09:45.961Z,61.28
2022-11-07T16:12:14.139Z,61.28
2022-11-07T16:14:44.639Z,62.00
2022-11-07T16:17:18.100Z,62.46
2022-11-07T16:19:46.306Z,63.81
2022-11-07T16:22:15.429Z,63.61
2022-11-07T16:24:42.827Z,63.51
2022-11-07T16:27:15.748Z,63.55
2022-11-07T16:29:44.356Z,63.20
2022-11-07T16:32:18.395Z,62.85
2022-11-07T16:34:46.668Z,61.60
2022-11-07T16:37:14.305Z,61.13
2022-11-07T16:39:41.683Z,60.90
2022-11-07T16:42:14.166Z,61.42
2022-11-07T16:44:42.081Z,61.50
2022-11-07T16:47:14.465Z,62.54
2022-11-07T16:49:42.554Z,61.86
2022-11-07T16:52:18.824Z,60.88
2022-11-07T16:54:46.460Z,62.47
2022-11-07T16:57:16.470Z,63.89
2022-11-07T16:59:45.918Z,64.21
2022-11-07T17:02:21.630Z,65.04
2022-11-07T17:04:51.611Z,65.65
2022-11-07T17:07:21.196Z,66.22
2022-11-07T17:09:49.079Z,66.86
2022-11-07T17:12:18.851Z,67.41
2022-11-07T17:14:46.708Z,68.10
2022-11-07T17:17:16.093Z,68.77
2022-11-07T17:19:43.613Z,68.80
2022-11-07T17:22:12.037Z,68.88
2022-11-07T17:24:40.452Z,69.05
2022-11-07T17:27:25.366Z,69.38
2022-11-07T17:29:54.138Z,69.76
2022-11-07T17:32:21.633Z,71.03
2022-11-07T17:35:10.618Z,70.04
2022-11-07T17:37:36.698Z,69.67
2022-11-07T17:40:05.416Z,70.10
2022-11-07T17:42:37.760Z,70.36
2022-11-07T17:45:06.449Z,70.79
2022-11-07T17:47:34.768Z,71.60
2022-11-07T17:50:02.918Z,72.68
2022-11-07T17:52:30.652Z,73.02
2022-11-07T17:54:58.630Z,73.19
2022-11-07T17:57:26.049Z,73.60
2022-11-07T17:59:53.422Z,73.13
2022-11-07T18:02:20.964Z,73.35
2022-11-07T18:04:48.453Z,73.26
2022-11-07T18:07:16.491Z,73.73
2022-11-07T18:09:43.917Z,74.27
2022-11-07T18:12:11.312Z,74.31
2022-11-07T18:14:38.785Z,75.04
2022-11-07T18:17:06.204Z,75.53
2022-11-07T18:19:33.916Z,75.79
2022-11-07T18:22:01.345Z,75.67
2022-11-07T18:24:28.899Z,76.32
2022-11-07T18:26:56.290Z,76.30
2022-11-07T18:29:24.920Z,76.95
2022-11-07T18:31:52.498Z,76.36
2022-11-07T18:34:20.584Z,76.36
2022-11-07T18:36:48.047Z,76.30
2022-11-07T18:39:24.142Z,76.16
2022-11-07T18:41:53.967Z,76.34
2022-11-07T18:44:21.503Z,75.44
2022-11-07T18:46:48.922Z,76.01
2022-11-07T18:49:18.672Z,75.78
2022-11-07T18:51:46.033Z,76.08
2022-11-07T18:54:14.112Z,76.07
2022-11-07T18:56:42.458Z,77.04
2022-11-07T18:59:10.900Z,77.01
2022-11-07T19:01:38.687Z,76.94
2022-11-07T19:04:07.581Z,77.77
2022-11-07T19:06:35.078Z,76.83
2022-11-07T19:09:03.545Z,76.14
2022-11-07T19:11:31.437Z,76.34
2022-11-07T19:14:02.944Z,76.33
2022-11-07T19:16:30.916Z,77.50
2022-11-07T19:18:59.726Z,76.98
2022-11-07T19:21:27.212Z,76.97
2022-11-07T19:23:54.632Z,76.71
2022-11-07T19:26:22.013Z,76.45
2022-11-07T19:28:50.530Z,76.50
2022-11-07T19:31:17.971Z,76.53
2022-11-07T19:33:45.357Z,76.45
2022-11-07T19:36:18.367Z,75.83
2022-11-07T19:38:46.375Z,75.90
2022-11-07T19:41:15.530Z,76.17
2022-11-07T19:43:45.363Z,76.49
2022-11-07T19:46:19.808Z,76.41
2022-11-07T19:48:48.238Z,76.16
2022-11-07T19:51:21.979Z,76.21
2022-11-07T19:53:59.077Z,76.57
2022-11-07T19:56:29.305Z,76.55
2022-11-07T19:58:59.442Z,76.35
2022-11-07T20:01:31.460Z,76.00
2022-11-07T20:04:03.425Z,76.26
2022-11-07T20:06:36.265Z,76.13
2022-11-07T20:09:09.118Z,76.05
2022-11-07T20:11:36.810Z,76.63
2022-11-07T20:14:04.544Z,77.36
2022-11-07T20:16:33.193Z,77.39
2022-11-07T20:19:01.212Z,77.71
2022-11-07T20:21:30.311Z,78.09
2022-11-07T20:23:59.487Z,78.03
2022-11-07T20:26:29.872Z,78.31
2022-11-07T20:28:57.919Z,77.74
2022-11-07T20:31:29.165Z,77.27
2022-11-07T20:34:05.528Z,76.64
2022-11-07T20:36:33.481Z,77.04
2022-11-07T20:39:01.983Z,77.08
2022-11-07T20:41:30.161Z,76.67
2022-11-07T20:44:01.671Z,76.73
2022-11-07T20:46:39.159Z,76.90
2022-11-07T20:49:09.176Z,76.39
2022-11-07T20:51:36.937Z,76.57
2022-11-07T20:54:04.813Z,76.52
2022-11-07T20:56:32.741Z,76.69
2022-11-07T20:59:00.933Z,77.35
2022-11-07T21:01:37.310Z,77.67
2022-11-07T21:04:08.404Z,77.77
2022-11-07T21:06:36.978Z,78.17
2022-11-07T21:09:04.998Z,78.60
2022-11-07T21:11:33.419Z,78.60
2022-11-07T21:14:01.047Z,78.28
2022-11-07T21:16:29.537Z,77.72
2022-11-07T21:18:56.971Z,77.60
2022-11-07T21:21:27.564Z,77.47
2022-11-07T21:23:57.280Z,77.48
2022-11-07T21:26:28.559Z,77.99
2022-11-07T21:28:56.419Z,77.35
2022-11-07T21:31:27.223Z,76.77
2022-11-07T21:33:55.754Z,77.67
2022-11-07T21:36:26.123Z,76.87
2022-11-07T21:38:55.060Z,76.53
2022-11-07T21:41:22.644Z,76.97
2022-11-07T21:43:50.568Z,76.66
2022-11-07T21:46:20.802Z,76.90
2022-11-07T21:48:50.627Z,76.90
2022-11-07T21:51:20.639Z,77.08
2022-11-07T21:53:48.806Z,77.41
2022-11-07T21:56:27.832Z,78.09
2022-11-07T21:58:58.917Z,77.72
2022-11-07T22:01:27.358Z,77.63
2022-11-07T22:04:11.792Z,77.51
2022-11-07T22:06:41.893Z,77.75
2022-11-07T22:09:10.791Z,77.50
2022-11-07T22:11:38.878Z,77.96
2022-11-07T22:14:06.326Z,77.26
2022-11-07T22:16:33.777Z,76.65
2022-11-07T22:19:01.573Z,76.68
2022-11-07T22:21:30.553Z,75.78
2022-11-07T22:23:58.614Z,75.65
2022-11-07T22:26:27.739Z,75.58
2022-11-07T22:28:55.417Z,75.55
2022-11-07T22:31:30.135Z,75.08
2022-11-07T22:33:59.725Z,75.45
2022-11-07T22:36:27.630Z,75.77
2022-11-07T22:38:58.808Z,75.99
2022-11-07T22:41:27.512Z,75.94
2022-11-07T22:43:55.548Z,75.86
2022-11-07T22:46:27.918Z,75.93
2022-11-07T22:48:56.369Z,76.21
2022-11-07T22:51:26.220Z,77.13
2022-11-07T22:54:03.472Z,77.51
2022-11-07T22:56:32.577Z,77.75
2022-11-07T22:59:00.029Z,78.03
2022-11-07T23:01:30.511Z,78.30
2022-11-07T23:04:02.187Z,77.94
2022-11-07T23:06:30.391Z,77.07
2022-11-07T23:08:59.036Z,76.31
2022-11-07T23:11:50.555Z,77.02
2022-11-07T23:14:21.093Z,76.85
2022-11-07T23:16:50.695Z,77.41
2022-11-07T23:19:20.193Z,77.12
2022-11-07T23:21:48.932Z,77.99
2022-11-07T23:24:16.474Z,77.56
2022-11-07T23:26:44.229Z,77.61
2022-11-07T23:29:20.750Z,77.63
2022-11-07T23:31:49.928Z,77.75
2022-11-07T23:34:18.780Z,77.62
2022-11-07T23:36:46.325Z,77.75
2022-11-07T23:39:16.368Z,78.18
2022-11-07T23:41:44.451Z,78.17
2022-11-07T23:44:12.215Z,78.53
2022-11-07T23:46:58.824Z,78.99
2022-11-07T23:49:55.142Z,78.91
2022-11-07T23:52:22.756Z,78.64
2022-11-07T23:55:08.824Z,78.38
2022-11-07T23:57:56.973Z,78.94
